Shakhterskiy, Russia
Current Conditions -  °F | °C
As of 8:30 AM on Tuesday 25 Nov 2014 (Local Time) from UHMA Reporting Station
Few Clouds Few Clouds  
Wind Chill:   Ceiling: Unl
Heat Index:   Visibility: 6mi
Dew Point:   Wind: 4mph
Humidity: 79%   Direction: NA
Pressure: 29.94"   Gusts: NA
Location:  64.78°N, 177.6°E
Report Text: UHMA 242030Z VRB02MPS 9999 FEW080 M13/M16 Q1014 NOSIG RMKQFE757/1009
Loading
Personal Weather Stations






























Interactive Weather Map New forecast layout! Learn more

10-Day Weather Forecast

Advertisements
Track Severe Weather on mobile